This is the latest recevied weather packets stored in our database for station/object K4VEB. If no packets are shown the sender has not sent any weather packets the latest 1 day(s).
| Time | Temp. | Humidity | Pressure | Rain* | Wind** | Luminosity | Snow |
|---|---|---|---|---|---|---|---|
| 1778081627 | 30.56° C | 51% | 1017.4 hPa | 0 mm | - | 531 W/m² | - |
| 1778081021 | 30° C | 52% | 1017.4 hPa | 0 mm | - | 659 W/m² | - |
| 1778080113 | 29.44° C | 54% | 1017.3 hPa | 0 mm | - | 647 W/m² | - |
| 1778078597 | 28.33° C | 60% | 1017.2 hPa | 0 mm | - | 530 W/m² | - |
| 1778077992 | 28.33° C | 60% | 1017.2 hPa | 0 mm | - | 555 W/m² | - |
| 1778077388 | 28.33° C | 63% | 1017 hPa | 0 mm | - | 543 W/m² | - |
| 1778077086 | 27.78° C | 65% | 1017.2 hPa | 0 mm | - | 527 W/m² | - |
| 1778076784 | 27.22° C | 66% | 1017.2 hPa | 0 mm | - | 478 W/m² | - |
| 1778076178 | 27.78° C | 68% | 1017.2 hPa | 0 mm | - | 355 W/m² | - |
| 1778075875 | 26.67° C | 70% | 1017.1 hPa | 0 mm | - | 456 W/m² | - |
| 1778075571 | 26.67° C | 71% | 1017.2 hPa | 0 mm | - | 429 W/m² | - |
| 1778075268 | 26.11° C | 71% | 1017.1 hPa | 0 mm | - | 410 W/m² | - |
| 1778073146 | 24.44° C | 77% | 1016.9 hPa | 0 mm | - | 247 W/m² | - |
| 1778072843 | 24.44° C | 77% | 1017 hPa | 0 mm | - | 278 W/m² | - |
| 1778072540 | 23.89° C | 77% | 1016.9 hPa | 0 mm | - | 224 W/m² | - |
| 1778069213 | 21.11° C | 84% | 1016.6 hPa | 0 mm | - | 109 W/m² | - |
| 1778068910 | 20.56° C | 86% | 1016.5 hPa | 0 mm | - | 92 W/m² | - |
| 1778067701 | 19.44° C | 90% | 1016.3 hPa | 0 mm | - | 44 W/m² | - |
| 1778066792 | 18.33° C | 91% | 1016.2 hPa | 0 mm | - | 33 W/m² | - |
| 1778066490 | 18.33° C | 92% | 1016.2 hPa | 0 mm | - | 28 W/m² | - |
| 1778065582 | 18.33° C | 92% | 1016.1 hPa | 0 mm | - | 16 W/m² | - |
| 1778064976 | 17.78° C | 91% | 1016 hPa | 0 mm | - | 8 W/m² | - |
| 1778062554 | 17.78° C | 91% | 1015.5 hPa | 0 mm | - | 0 W/m² | - |
| 1778061346 | 17.78° C | 90% | 1015.4 hPa | 0 mm | - | 0 W/m² | - |
| 1778061042 | 17.78° C | 90% | 1015.6 hPa | 0 mm | - | 0 W/m² | - |
* Rain latest hour (hover to see other rain measurements)
** Current wind speed in m/s (hover to see current wind gust speed)